Time;durP1;ratioP1;P1;durP2;ratioP2;P2;SDS_P1;SDS_P2;PMS_P1;PMS_P2;Temp;Humidity;BMP_temperature;BMP_pressure;BME280_temperature;BME280_humidity;BME280_pressure;Samples;Min_cycle;Max_cycle;Signal;HPM_P1;HPM_P2
2023/01/11 00:00:17;;;;;;;;;;;;;;;17.10;48.51;100472.38;5094615;28;1979;-37
2023/01/11 00:02:44;;;;;;;;;;;;;;;16.57;48.38;100466.59;5095828;28;1125;-38
2023/01/11 00:05:10;;;;;;;;;;;;;;;17.76;47.90;100463.94;5095016;28;907;-40
2023/01/11 00:07:36;;;;;;;;;;;;;;;16.89;49.10;100451.66;5095294;28;1049;-41
2023/01/11 00:10:03;;;;;;;;;;;;;;;16.60;48.33;100424.88;5095428;28;1070;-38
2023/01/11 00:12:29;;;;;;;;;;;;;;;16.47;47.46;100430.97;5095384;28;1133;-40
2023/01/11 00:14:55;;;;;;;;;;;;;;;16.64;48.17;100469.88;5095570;28;1132;-35
2023/01/11 00:17:20;;;;;;;;;;;;;;;16.95;48.76;100499.94;5097772;28;1023;-37
2023/01/11 00:19:46;;;;;;;;;;;;;;;16.54;48.17;100491.88;5087420;28;1073;-35
2023/01/11 00:22:11;;;;;;;;;;;;;;;16.33;47.72;100502.09;5097809;28;1913;-35
2023/01/11 00:24:37;;;;;;;;;;;;;;;16.84;48.69;100507.38;5099214;28;1050;-37
2023/01/11 00:27:02;;;;;;;;;;;;;;;16.45;48.43;100501.78;5098543;28;1054;-34
2023/01/11 00:29:27;;;;;;;;;;;;;;;18.15;47.25;100522.75;5099407;28;1048;-37
2023/01/11 00:31:53;;;;;;;;;;;;;;;17.00;48.97;100521.91;5099150;28;1114;-36
2023/01/11 00:34:18;;;;;;;;;;;;;;;16.74;47.96;100518.41;5099284;28;1193;-36
2023/01/11 00:36:44;;;;;;;;;;;;;;;17.06;48.63;100520.75;5098513;28;1126;-41
2023/01/11 00:39:09;;;;;;;;;;;;;;;17.07;48.94;100516.91;5098314;28;1050;-35
2023/01/11 00:49:46;;;;;;;;;;;;;;;16.50;47.89;100496.28;5098065;28;1026;-38
2023/01/11 00:52:12;;;;;;;;;;;;;;;17.35;48.44;100484.31;5098536;28;1083;-38
2023/01/11 00:54:37;;;;;;;;;;;;;;;16.69;48.85;100472.59;5098180;28;1126;-37
2023/01/11 00:57:03;;;;;;;;;;;;;;;16.55;47.77;100453.16;5097266;28;1083;-37
2023/01/11 00:59:28;;;;;;;;;;;;;;;16.91;48.30;100442.03;5098545;28;1055;-38
2023/01/11 01:01:54;;;;;;;;;;;;;;;16.75;48.68;100448.69;5098584;28;1910;-38
2023/01/11 01:04:19;;;;;;;;;;;;;;;16.41;48.08;100452.09;5098490;28;1134;-36
2023/01/11 01:06:45;;;;;;;;;;;;;;;17.42;48.18;100451.03;5098420;28;1050;-37
2023/01/11 01:09:10;;;;;;;;;;;;;;;16.90;48.66;100447.78;5097582;28;1030;-40
2023/01/11 01:11:36;;;;;;;;;;;;;;;16.46;48.16;100443.88;5098805;28;1173;-39
2023/01/11 01:16:46;;;;;;;;;;;;;;;16.39;47.54;100455.13;5097206;28;1158;-36
2023/01/11 01:19:12;;;;;;;;;;;;;;;17.18;48.34;100446.25;5097319;28;1070;-35
2023/01/11 01:21:37;;;;;;;;;;;;;;;16.57;48.50;100450.13;5097096;28;1918;-38
2023/01/11 01:24:03;;;;;;;;;;;;;;;17.97;47.63;100445.31;5096176;28;1208;-39
2023/01/11 01:26:28;;;;;;;;;;;;;;;17.27;48.71;100439.03;5085225;28;1297;-40
2023/01/11 01:28:54;;;;;;;;;;;;;;;16.67;48.73;100444.59;5088574;28;829;-37
2023/01/11 01:31:19;;;;;;;;;;;;;;;16.52;47.57;100451.00;5095956;28;1133;-38
2023/01/11 01:33:44;;;;;;;;;;;;;;;17.39;48.41;100446.91;5097549;28;1190;-39
2023/01/11 01:36:10;;;;;;;;;;;;;;;16.83;49.07;100452.75;5097219;28;1452;-38
2023/01/11 01:38:35;;;;;;;;;;;;;;;16.58;48.20;100460.03;5095790;28;1421;-39
2023/01/11 01:41:01;;;;;;;;;;;;;;;16.48;47.38;100477.34;5087650;28;1992;-38
2023/01/11 01:44:02;;;;;;;;;;;;;;;17.12;48.60;100485.03;5097348;28;1229;-38
2023/01/11 01:46:30;;;;;;;;;;;;;;;16.54;48.57;100500.13;5054668;28;1398;-35
2023/01/11 01:49:00;;;;;;;;;;;;;;;17.00;48.51;100496.34;5089684;28;1165;-39
2023/01/11 01:51:46;;;;;;;;;;;;;;;16.73;49.01;100487.41;5096765;28;1019;-36
2023/01/11 01:54:13;;;;;;;;;;;;;;;16.48;47.88;100484.75;5096658;28;1752;-37
2023/01/11 01:56:44;;;;;;;;;;;;;;;17.76;47.75;100505.19;5092136;28;1294;-37
2023/01/11 01:59:11;;;;;;;;;;;;;;;16.81;48.49;100501.66;5086943;28;904;-37
2023/01/11 02:01:46;;;;;;;;;;;;;;;16.56;47.64;100490.50;5096525;28;1968;-38
2023/01/11 02:04:23;;;;;;;;;;;;;;;17.13;48.36;100506.72;5095991;28;1208;-37
2023/01/11 02:06:49;;;;;;;;;;;;;;;16.57;48.45;100510.53;5090924;28;963;-38
2023/01/11 02:09:26;;;;;;;;;;;;;;;18.15;47.39;100515.31;5096926;28;1051;-38
2023/01/11 02:11:51;;;;;;;;;;;;;;;17.03;48.90;100521.34;5095228;28;1028;-37
2023/01/11 02:14:17;;;;;;;;;;;;;;;16.63;48.54;100517.63;5095805;28;1229;-38
2023/01/11 02:16:43;;;;;;;;;;;;;;;16.53;47.70;100525.91;5093664;28;1308;-41
2023/01/11 02:19:09;;;;;;;;;;;;;;;16.32;47.26;100511.44;5087461;28;921;-40
2023/01/11 02:21:53;;;;;;;;;;;;;;;17.23;48.35;100514.88;5094977;28;1910;-40
2023/01/11 02:24:27;;;;;;;;;;;;;;;16.90;48.83;100510.94;5086363;28;1015;-37
2023/01/11 02:26:58;;;;;;;;;;;;;;;16.49;48.28;100502.88;5096772;28;1137;-39
2023/01/11 02:29:32;;;;;;;;;;;;;;;16.74;48.63;100480.78;5095368;28;1031;-38
2023/01/11 02:31:58;;;;;;;;;;;;;;;16.83;48.85;100488.44;5095309;28;1246;-38
2023/01/11 02:34:23;;;;;;;;;;;;;;;16.55;48.14;100477.88;5096593;28;1302;-39
2023/01/11 02:36:51;;;;;;;;;;;;;;;16.24;47.81;100477.13;5096360;28;1323;-40
2023/01/11 02:39:29;;;;;;;;;;;;;;;17.66;48.00;100486.84;5096081;28;1476;-38
2023/01/11 02:45:11;;;;;;;;;;;;;;;16.38;47.96;100489.19;5086625;28;1175;-38
2023/01/11 02:47:46;;;;;;;;;;;;;;;16.42;48.01;100490.28;5096602;28;1207;-40
2023/01/11 02:50:30;;;;;;;;;;;;;;;17.50;47.83;100507.31;5096608;28;1137;-37
2023/01/11 02:52:56;;;;;;;;;;;;;;;16.50;48.58;100497.09;5084682;28;1051;-35
2023/01/11 02:55:23;;;;;;;;;;;;;;;16.42;47.72;100501.25;5096473;28;1162;-35
2023/01/11 02:57:48;;;;;;;;;;;;;;;17.65;48.02;100507.19;5095230;28;1122;-42
2023/01/11 03:00:15;;;;;;;;;;;;;;;16.68;49.07;100517.63;5095084;28;1075;-37
2023/01/11 03:02:40;;;;;;;;;;;;;;;16.62;48.31;100512.41;5094372;28;1909;-37
2023/01/11 03:05:13;;;;;;;;;;;;;;;17.27;48.44;100537.94;5095643;28;1073;-37
2023/01/11 03:07:38;;;;;;;;;;;;;;;16.61;48.28;100547.28;5096439;28;1062;-43
2023/01/11 03:10:16;;;;;;;;;;;;;;;16.53;48.30;100556.09;5096077;28;1133;-40
2023/01/11 03:13:02;;;;;;;;;;;;;;;17.08;48.78;100547.94;5095917;28;1168;-39
2023/01/11 03:15:39;;;;;;;;;;;;;;;16.60;48.25;100562.94;5095480;28;1469;-38
2023/01/11 03:18:21;;;;;;;;;;;;;;;17.26;48.44;100555.56;5092112;28;1640;-39
2023/01/11 03:20:52;;;;;;;;;;;;;;;16.83;48.60;100557.09;5083015;28;1893;-35
2023/01/11 03:23:22;;;;;;;;;;;;;;;16.96;49.20;100562.03;5094551;28;1071;-35
2023/01/11 03:25:57;;;;;;;;;;;;;;;17.48;48.46;100564.50;5088794;28;956;-36
2023/01/11 03:28:31;;;;;;;;;;;;;;;16.82;48.83;100566.47;5096076;28;1062;-39
2023/01/11 03:30:59;;;;;;;;;;;;;;;16.57;47.82;100562.69;5096071;28;866;-40
2023/01/11 03:33:31;;;;;;;;;;;;;;;16.62;48.06;100543.47;5095752;28;1078;-45
2023/01/11 03:36:01;;;;;;;;;;;;;;;17.15;48.75;100536.66;5096141;28;1059;-40
2023/01/11 03:38:35;;;;;;;;;;;;;;;16.57;48.45;100552.50;5095559;28;1055;-41
2023/01/11 03:41:03;;;;;;;;;;;;;;;16.50;47.40;100551.19;5094394;28;1906;-39
2023/01/11 03:43:29;;;;;;;;;;;;;;;17.16;48.14;100552.03;5082457;28;1077;-39
2023/01/11 03:46:18;;;;;;;;;;;;;;;16.55;48.42;100543.75;5092171;28;1333;-38
2023/01/11 03:48:51;;;;;;;;;;;;;;;16.33;47.75;100519.38;5087785;28;1513;-37
2023/01/11 03:51:18;;;;;;;;;;;;;;;17.24;48.22;100518.47;5084459;28;1137;-40
2023/01/11 03:53:44;;;;;;;;;;;;;;;16.72;49.05;100526.13;5097756;28;1186;-40
2023/01/11 03:56:09;;;;;;;;;;;;;;;18.34;47.13;100531.91;5098406;28;1135;-38
2023/01/11 03:58:35;;;;;;;;;;;;;;;17.48;48.99;100548.00;5097587;28;1286;-39
2023/01/11 04:01:00;;;;;;;;;;;;;;;16.99;48.50;100553.22;5088724;28;1977;-42
2023/01/11 04:03:27;;;;;;;;;;;;;;;16.69;48.03;100567.84;5097909;28;1084;-43
2023/01/11 04:05:52;;;;;;;;;;;;;;;17.62;48.67;100582.81;5093367;28;1315;-41
2023/01/11 04:08:18;;;;;;;;;;;;;;;17.05;48.66;100563.06;5089775;28;1145;-42
2023/01/11 04:10:43;;;;;;;;;;;;;;;16.67;48.19;100570.06;5099508;28;1117;-41
2023/01/11 04:13:09;;;;;;;;;;;;;;;16.51;47.47;100574.75;5099224;28;1066;-46
2023/01/11 04:15:34;;;;;;;;;;;;;;;16.41;46.92;100581.94;5098743;28;1162;-47
2023/01/11 04:18:05;;;;;;;;;;;;;;;17.27;48.53;100581.09;5091404;28;2516;-39
2023/01/11 04:20:32;;;;;;;;;;;;;;;16.71;48.72;100579.38;5096370;28;1978;-39
2023/01/11 04:22:57;;;;;;;;;;;;;;;16.58;47.66;100578.88;5095056;28;1692;-41
2023/01/11 04:25:22;;;;;;;;;;;;;;;17.65;48.15;100575.13;5097806;28;2183;-40
2023/01/11 04:27:48;;;;;;;;;;;;;;;16.83;48.86;100581.81;5095810;28;2045;-43
2023/01/11 04:30:13;;;;;;;;;;;;;;;16.53;48.47;100578.06;5098148;28;1919;-44
2023/01/11 04:32:39;;;;;;;;;;;;;;;16.45;47.44;100575.88;5098742;28;2101;-42
2023/01/11 04:35:04;;;;;;;;;;;;;;;16.37;46.95;100569.84;5098123;28;1127;-36
2023/01/11 04:37:30;;;;;;;;;;;;;;;17.38;48.28;100582.69;5098594;28;1101;-44
2023/01/11 04:39:55;;;;;;;;;;;;;;;16.58;48.94;100572.56;5098246;28;1090;-42
2023/01/11 04:42:22;;;;;;;;;;;;;;;16.35;48.54;100583.00;5098631;28;1980;-43
2023/01/11 04:44:48;;;;;;;;;;;;;;;17.40;48.35;100580.50;5098407;28;1162;-44
2023/01/11 04:47:14;;;;;;;;;;;;;;;16.79;48.81;100586.22;5098112;28;1174;-45
2023/01/11 04:49:39;;;;;;;;;;;;;;;16.56;48.06;100583.84;5088720;28;1229;-45
2023/01/11 04:52:05;;;;;;;;;;;;;;;16.32;47.76;100604.72;5097651;28;1106;-45
2023/01/11 04:54:30;;;;;;;;;;;;;;;17.50;47.84;100598.84;5097393;28;899;-45
2023/01/11 04:56:56;;;;;;;;;;;;;;;16.61;48.98;100610.44;5098576;28;1146;-41
2023/01/11 04:59:21;;;;;;;;;;;;;;;16.94;48.93;100610.91;5097782;28;1098;-43
2023/01/11 05:01:47;;;;;;;;;;;;;;;17.29;48.87;100600.88;5097894;28;1909;-48
2023/01/11 05:04:12;;;;;;;;;;;;;;;16.65;49.04;100607.94;5096965;28;1039;-47
2023/01/11 05:06:38;;;;;;;;;;;;;;;16.49;47.88;100596.19;5097761;28;1070;-45
2023/01/11 05:09:03;;;;;;;;;;;;;;;17.47;48.46;100598.59;5098214;28;1058;-45
2023/01/11 05:11:29;;;;;;;;;;;;;;;16.70;48.84;100589.53;5098395;28;1151;-45
2023/01/11 05:13:56;;;;;;;;;;;;;;;16.67;48.82;100611.25;5097827;28;1074;-46
2023/01/11 05:16:24;;;;;;;;;;;;;;;17.09;48.78;100602.59;5097826;28;1082;-44
2023/01/11 05:18:51;;;;;;;;;;;;;;;16.53;48.57;100613.75;5097872;28;1175;-45
2023/01/11 05:21:17;;;;;;;;;;;;;;;16.43;48.01;100609.91;5097826;28;1976;-43
2023/01/11 05:23:42;;;;;;;;;;;;;;;17.20;48.48;100622.63;5098071;28;1229;-46
2023/01/11 05:26:09;;;;;;;;;;;;;;;16.54;48.77;100618.16;5098183;28;1118;-46
2023/01/11 05:28:34;;;;;;;;;;;;;;;17.60;48.47;100630.97;5097812;28;1035;-45
2023/01/11 05:31:00;;;;;;;;;;;;;;;17.01;48.86;100630.69;5087034;28;1062;-44
2023/01/11 05:33:25;;;;;;;;;;;;;;;16.69;48.49;100637.31;5095463;28;1205;-41
2023/01/11 05:35:55;;;;;;;;;;;;;;;17.01;48.86;100638.09;5097849;28;1105;-44
2023/01/11 05:38:21;;;;;;;;;;;;;;;17.15;49.05;100627.31;5096621;28;2220;-45
2023/01/11 05:40:52;;;;;;;;;;;;;;;16.71;48.32;100628.81;5097151;28;1988;-46
2023/01/11 05:43:17;;;;;;;;;;;;;;;16.39;48.23;100638.19;5089967;28;1967;-43
2023/01/11 05:45:43;;;;;;;;;;;;;;;17.21;48.75;100639.97;5096611;28;1831;-46
2023/01/11 05:48:08;;;;;;;;;;;;;;;16.66;48.83;100643.38;5095712;28;1846;-42
2023/01/11 05:50:33;;;;;;;;;;;;;;;17.03;48.95;100642.19;5096724;28;1839;-43
2023/01/11 05:52:59;;;;;;;;;;;;;;;16.86;49.02;100641.69;5096652;28;1816;-43
2023/01/11 05:55:24;;;;;;;;;;;;;;;16.51;48.29;100632.41;5096750;28;907;-44
2023/01/11 05:57:50;;;;;;;;;;;;;;;17.52;48.30;100640.63;5096361;28;1265;-46
2023/01/11 06:00:16;;;;;;;;;;;;;;;16.77;48.83;100653.25;5096676;28;1113;-42
2023/01/11 06:02:41;;;;;;;;;;;;;;;16.42;48.32;100657.69;5096433;28;1974;-45
2023/01/11 06:05:07;;;;;;;;;;;;;;;16.37;47.93;100648.63;5096245;28;1064;-46
2023/01/11 06:07:32;;;;;;;;;;;;;;;17.39;48.42;100646.72;5096449;28;1155;-42
2023/01/11 06:09:58;;;;;;;;;;;;;;;16.57;49.04;100647.78;5096900;28;1185;-48
2023/01/11 06:12:23;;;;;;;;;;;;;;;16.48;47.98;100654.91;5096127;28;1213;-44
2023/01/11 06:14:49;;;;;;;;;;;;;;;17.15;48.48;100660.28;5096233;28;1221;-44
2023/01/11 06:17:14;;;;;;;;;;;;;;;16.60;48.51;100670.00;5096727;28;1138;-45
2023/01/11 06:19:40;;;;;;;;;;;;;;;16.33;47.88;100667.56;5096429;28;1054;-45
2023/01/11 06:22:05;;;;;;;;;;;;;;;17.45;47.77;100671.16;5093786;28;2374;-44
2023/01/11 06:24:30;;;;;;;;;;;;;;;16.07;51.70;100669.44;5096130;28;1094;-41
2023/01/11 06:26:56;;;;;;;;;;;;;;;16.36;50.60;100677.16;5097286;28;1229;-44
2023/01/11 06:29:21;;;;;;;;;;;;;;;16.23;51.11;100695.00;5095847;28;1115;-45
2023/01/11 06:31:47;;;;;;;;;;;;;;;16.06;51.37;100700.72;5096302;28;891;-44
2023/01/11 06:34:12;;;;;;;;;;;;;;;15.96;51.76;100707.00;5095866;28;1197;-47
2023/01/11 06:36:38;;;;;;;;;;;;;;;15.85;52.05;100710.81;5095518;28;1253;-48
2023/01/11 06:39:03;;;;;;;;;;;;;;;15.76;52.29;100701.47;5092719;28;1480;-43
2023/01/11 06:41:29;;;;;;;;;;;;;;;17.01;49.40;100702.13;5077801;28;1922;-46
2023/01/11 06:43:54;;;;;;;;;;;;;;;16.61;49.88;100709.25;5081572;28;965;-45
2023/01/11 06:46:20;;;;;;;;;;;;;;;16.16;51.27;100705.38;5080309;28;1083;-47
2023/01/11 06:48:46;;;;;;;;;;;;;;;15.91;51.87;100720.72;5096077;28;1050;-47
2023/01/11 06:51:11;;;;;;;;;;;;;;;17.00;49.47;100718.84;5091562;28;1033;-45
2023/01/11 06:53:37;;;;;;;;;;;;;;;16.87;49.37;100717.47;5089875;28;2094;-44
2023/01/11 06:56:02;;;;;;;;;;;;;;;16.27;51.01;100728.19;5093228;28;1281;-44
2023/01/11 06:58:28;;;;;;;;;;;;;;;16.07;51.57;100727.91;5093810;28;1456;-45
2023/01/11 07:00:54;;;;;;;;;;;;;;;15.90;51.83;100732.78;5095682;28;1963;-45
2023/01/11 07:03:19;;;;;;;;;;;;;;;17.32;48.79;100731.41;5096359;28;1265;-47
2023/01/11 07:05:45;;;;;;;;;;;;;;;16.55;50.51;100735.06;5089575;28;1172;-47
2023/01/11 07:08:10;;;;;;;;;;;;;;;16.14;51.65;100746.00;5089545;28;1060;-48
2023/01/11 07:10:36;;;;;;;;;;;;;;;15.94;52.16;100730.31;5082178;28;1154;-46
2023/01/11 07:13:01;;;;;;;;;;;;;;;15.78;52.44;100721.19;5083643;28;1060;-46
2023/01/11 07:15:27;;;;;;;;;;;;;;;16.77;50.10;100729.28;5081041;28;1225;-38
2023/01/11 07:17:53;;;;;;;;;;;;;;;17.02;49.26;100722.97;5095078;28;1030;-45
2023/01/11 07:20:18;;;;;;;;;;;;;;;16.28;51.19;100722.41;5080633;28;1153;-44
2023/01/11 07:22:44;;;;;;;;;;;;;;;16.04;51.82;100719.38;5087543;28;2066;-45
2023/01/11 07:25:09;;;;;;;;;;;;;;;16.17;51.75;100718.00;5080571;28;1003;-45
2023/01/11 07:27:35;;;;;;;;;;;;;;;17.32;48.74;100710.25;5086295;28;1081;-46
2023/01/11 07:30:00;;;;;;;;;;;;;;;16.42;51.07;100715.31;5096936;28;1205;-45
2023/01/11 07:32:26;;;;;;;;;;;;;;;16.10;52.06;100723.75;5098782;28;1165;-44
2023/01/11 07:34:52;;;;;;;;;;;;;;;15.89;52.27;100717.41;5094835;28;1257;-46
2023/01/11 07:37:17;;;;;;;;;;;;;;;16.31;51.61;100716.38;5099338;28;1245;-45
2023/01/11 07:39:43;;;;;;;;;;;;;;;17.13;49.19;100710.03;5092827;28;1269;-43
2023/01/11 07:44:53;;;;;;;;;;;;;;;16.01;52.22;100734.44;5098015;28;900;-43
2023/01/11 07:47:18;;;;;;;;;;;;;;;17.47;48.78;100733.28;5099210;28;1131;-42
2023/01/11 07:49:43;;;;;;;;;;;;;;;16.64;50.67;100733.41;5099127;28;1042;-43
2023/01/11 07:52:09;;;;;;;;;;;;;;;16.22;51.80;100742.72;5089599;28;1931;-48
2023/01/11 07:54:34;;;;;;;;;;;;;;;16.02;52.11;100755.31;5089993;28;1102;-43
2023/01/11 07:57:00;;;;;;;;;;;;;;;16.17;52.22;100761.91;5097119;28;1229;-44
2023/01/11 07:59:25;;;;;;;;;;;;;;;17.38;48.64;100758.59;5095844;28;1217;-42
2023/01/11 08:01:51;;;;;;;;;;;;;;;16.45;51.15;100763.31;5089454;28;1963;-47
2023/01/11 08:04:16;;;;;;;;;;;;;;;16.12;52.07;100770.13;5092315;28;1264;-49
2023/01/11 08:06:41;;;;;;;;;;;;;;;15.94;52.63;100765.97;5094699;28;1268;-44
2023/01/11 08:09:07;;;;;;;;;;;;;;;16.82;50.39;100755.94;5098198;28;1021;-46
2023/01/11 08:17:00;;;;;;;;;;;;;;;16.05;52.21;100770.41;5092302;28;1117;-47
2023/01/11 08:19:26;;;;;;;;;;;;;;;15.89;52.53;100777.72;5087068;28;1483;-44
2023/01/11 08:21:51;;;;;;;;;;;;;;;16.41;51.54;100778.69;5097870;28;1984;-46
2023/01/11 08:24:17;;;;;;;;;;;;;;;17.30;48.89;100772.91;5078676;28;1047;-42
2023/01/11 08:26:42;;;;;;;;;;;;;;;16.41;51.46;100781.44;5078533;28;1113;-50
2023/01/11 08:29:08;;;;;;;;;;;;;;;16.08;52.35;100778.91;5090230;28;1110;-49
2023/01/11 08:31:33;;;;;;;;;;;;;;;15.90;52.68;100784.88;5094809;28;1453;-51
2023/01/11 08:33:59;;;;;;;;;;;;;;;17.31;49.18;100785.56;5096249;28;1090;-50
2023/01/11 08:36:26;;;;;;;;;;;;;;;16.71;50.53;100804.53;5098537;28;990;-48
2023/01/11 08:38:57;;;;;;;;;;;;;;;16.21;51.83;100799.50;5093712;28;1026;-44
2023/01/11 08:41:23;;;;;;;;;;;;;;;15.96;52.70;100800.25;5078263;28;1990;-46
2023/01/11 08:43:48;;;;;;;;;;;;;;;15.90;52.68;100804.06;5077595;28;1028;-46
2023/01/11 08:46:14;;;;;;;;;;;;;;;17.44;48.81;100806.13;5089840;28;1114;-44
2023/01/11 08:48:39;;;;;;;;;;;;;;;16.47;51.16;100802.31;5084742;28;1057;-49
2023/01/11 08:51:05;;;;;;;;;;;;;;;16.13;52.16;100807.44;5098353;28;1105;-43
2023/01/11 08:53:30;;;;;;;;;;;;;;;16.70;50.85;100809.19;5093649;28;2082;-46
2023/01/11 08:55:56;;;;;;;;;;;;;;;16.92;49.97;100806.19;5097789;28;1042;-45
2023/01/11 08:58:21;;;;;;;;;;;;;;;16.29;51.99;100800.09;5093580;28;1045;-45
2023/01/11 09:00:47;;;;;;;;;;;;;;;16.05;52.60;100803.31;5097923;28;1970;-47
2023/01/11 09:03:13;;;;;;;;;;;;;;;15.88;52.80;100817.25;5096882;28;1205;-40
2023/01/11 09:05:39;;;;;;;;;;;;;;;17.18;49.57;100813.59;5097114;28;1054;-40
2023/01/11 09:08:05;;;;;;;;;;;;;;;16.82;50.54;100810.88;5091862;28;1198;-49
2023/01/11 09:10:30;;;;;;;;;;;;;;;16.24;51.97;100801.72;5091292;28;1169;-44
2023/01/11 09:12:55;;;;;;;;;;;;;;;16.03;52.39;100817.31;5084192;28;1103;-45
2023/01/11 09:15:21;;;;;;;;;;;;;;;16.08;52.67;100825.53;5097488;28;1512;-48
2023/01/11 09:17:47;;;;;;;;;;;;;;;17.45;48.81;100814.09;5077442;28;995;-45
2023/01/11 09:20:12;;;;;;;;;;;;;;;16.51;51.44;100822.63;5077959;28;968;-49
2023/01/11 09:22:38;;;;;;;;;;;;;;;16.11;52.11;100813.19;5097525;28;1925;-48
2023/01/11 09:25:03;;;;;;;;;;;;;;;15.94;52.92;100818.91;5096902;28;1046;-47
2023/01/11 09:27:29;;;;;;;;;;;;;;;16.24;52.49;100809.13;5083693;28;1169;-47
2023/01/11 09:29:54;;;;;;;;;;;;;;;17.57;48.67;100818.47;5096171;28;994;-47
2023/01/11 09:32:20;;;;;;;;;;;;;;;16.67;51.04;100831.69;5089898;28;1161;-47
2023/01/11 09:34:48;;;;;;;;;;;;;;;16.23;52.15;100832.19;5090164;28;1027;-46
2023/01/11 09:37:14;;;;;;;;;;;;;;;15.98;52.63;100824.69;5076886;28;1135;-46
2023/01/11 09:39:40;;;;;;;;;;;;;;;16.32;52.09;100829.72;5090919;28;1111;-49
2023/01/11 09:42:11;;;;;;;;;;;;;;;17.39;49.29;100809.72;5089118;28;1976;-47
2023/01/11 09:44:41;;;;;;;;;;;;;;;16.49;51.30;100813.00;5091095;28;1174;-46
2023/01/11 09:47:09;;;;;;;;;;;;;;;16.11;52.50;100812.38;5095364;28;1043;-49
2023/01/11 09:49:39;;;;;;;;;;;;;;;15.94;52.90;100824.38;5094142;28;1092;-48
2023/01/11 09:52:27;;;;;;;;;;;;;;;16.50;51.61;100826.47;5085279;28;1910;-47
2023/01/11 09:54:53;;;;;;;;;;;;;;;17.00;50.28;100823.22;5065630;28;1401;-46
2023/01/11 09:57:29;;;;;;;;;;;;;;;16.29;52.04;100814.63;5089169;28;875;-49
2023/01/11 10:00:01;;;;;;;;;;;;;;;15.98;52.72;100808.22;5083405;28;1076;-48
2023/01/11 10:02:35;;;;;;;;;;;;;;;16.54;51.84;100811.09;5082818;28;1906;-48
2023/01/11 10:05:22;;;;;;;;;;;;;;;17.32;49.30;100803.72;5096446;28;1084;-45
2023/01/11 10:08:12;;;;;;;;;;;;;;;16.34;51.86;100806.41;5091063;28;1118;-50
2023/01/11 10:10:46;;;;;;;;;;;;;;;16.05;52.85;100808.81;5102632;28;1167;-50
2023/01/11 10:13:18;;;;;;;;;;;;;;;17.40;49.24;100803.16;5095729;28;1241;-46
2023/01/11 10:15:58;;;;;;;;;;;;;;;16.65;51.34;100800.97;5095311;28;1057;-51
2023/01/11 10:18:40;;;;;;;;;;;;;;;16.23;52.11;100804.75;5093483;28;1260;-48
2023/01/11 10:21:09;;;;;;;;;;;;;;;15.98;52.83;100813.72;5085624;28;1984;-46
2023/01/11 10:23:44;;;;;;;;;;;;;;;15.86;53.22;100805.69;5083666;28;1800;-46
2023/01/11 10:26:15;;;;;;;;;;;;;;;17.49;49.23;100805.28;5095450;28;1018;-46
2023/01/11 10:28:53;;;;;;;;;;;;;;;16.60;51.39;100809.19;5095656;28;986;-47
2023/01/11 10:34:37;;;;;;;;;;;;;;;16.01;53.13;100808.50;5087676;28;1387;-46
2023/01/11 10:42:32;;;;;;;;;;;;;;;15.99;53.10;100799.72;5095874;28;1913;-50
2023/01/11 10:45:02;;;;;;;;;;;;;;;15.85;53.43;100798.56;5094976;28;1023;-48
2023/01/11 10:47:29;;;;;;;;;;;;;;;17.42;49.45;100795.44;5081794;28;1123;-50
2023/01/11 10:50:01;;;;;;;;;;;;;;;16.74;50.92;100788.31;5093806;28;1075;-48
2023/01/11 10:52:32;;;;;;;;;;;;;;;16.22;52.52;100786.63;5093642;28;1867;-48
2023/01/11 10:54:59;;;;;;;;;;;;;;;15.98;52.93;100795.31;5095910;28;1185;-45
2023/01/11 10:57:43;;;;;;;;;;;;;;;16.32;52.57;100786.63;5094059;28;1214;-46
2023/01/11 11:00:15;;;;;;;;;;;;;;;17.30;49.64;100783.09;5094935;28;1186;-46
2023/01/11 11:02:59;;;;;;;;;;;;;;;16.43;51.79;100782.81;5094092;28;1976;-42
2023/01/11 11:05:40;;;;;;;;;;;;;;;16.08;52.93;100787.13;5095751;28;1142;-46
2023/01/11 11:08:09;;;;;;;;;;;;;;;15.98;53.05;100783.53;5095391;28;1269;-45
2023/01/11 11:10:55;;;;;;;;;;;;;;;17.43;49.61;100780.59;5087412;28;980;-46
2023/01/11 11:13:20;;;;;;;;;;;;;;;16.44;52.13;100789.13;5073643;28;1197;-43
2023/01/11 11:15:58;;;;;;;;;;;;;;;16.11;52.61;100780.28;5091552;28;1111;-47
2023/01/11 11:18:24;;;;;;;;;;;;;;;15.87;53.40;100790.91;5095156;28;1081;-46
2023/01/11 11:20:49;;;;;;;;;;;;;;;17.00;50.57;100791.09;5090672;28;1902;-48
2023/01/11 11:23:15;;;;;;;;;;;;;;;16.96;50.52;100784.50;5087324;28;1050;-47
2023/01/11 11:25:41;;;;;;;;;;;;;;;16.28;52.24;100771.81;5082044;28;1089;-46
2023/01/11 11:28:07;;;;;;;;;;;;;;;16.02;53.05;100774.50;5095000;28;1019;-48
2023/01/11 11:30:33;;;;;;;;;;;;;;;17.38;49.80;100774.28;5081352;28;1146;-48
2023/01/11 11:33:00;;;;;;;;;;;;;;;16.70;51.29;100761.69;5094614;28;1007;-50
2023/01/11 11:35:41;;;;;;;;;;;;;;;16.23;52.40;100772.63;5095688;28;1073;-49
2023/01/11 11:38:15;;;;;;;;;;;;;;;16.02;53.12;100776.41;5085656;28;1236;-51
2023/01/11 11:40:40;;;;;;;;;;;;;;;16.21;52.74;100763.00;5095150;28;1972;-47
2023/01/11 11:43:10;;;;;;;;;;;;;;;17.36;49.47;100763.56;5089502;28;1149;-46
2023/01/11 11:45:35;;;;;;;;;;;;;;;16.40;52.23;100764.16;5091259;28;1320;-49
2023/01/11 11:48:01;;;;;;;;;;;;;;;16.11;52.69;100768.50;5088913;28;1043;-47
2023/01/11 11:50:27;;;;;;;;;;;;;;;16.55;51.88;100759.75;5095761;28;1237;-48
2023/01/11 11:52:53;;;;;;;;;;;;;;;17.27;49.86;100762.47;5095962;28;1214;-49
2023/01/11 11:55:20;;;;;;;;;;;;;;;16.46;52.26;100764.16;5095708;28;1221;-45
2023/01/11 11:57:45;;;;;;;;;;;;;;;16.10;52.85;100767.66;5087685;28;1051;-47
2023/01/11 12:00:31;;;;;;;;;;;;;;;16.42;52.26;100775.69;5104473;28;1056;-48
2023/01/11 12:02:58;;;;;;;;;;;;;;;17.06;50.67;100762.50;5094772;28;1909;-47
2023/01/11 12:05:23;;;;;;;;;;;;;;;16.35;52.37;100785.28;5082294;28;1106;-49
2023/01/11 12:07:48;;;;;;;;;;;;;;;16.05;53.24;100775.88;5087809;28;1199;-51
2023/01/11 12:10:15;;;;;;;;;;;;;;;16.18;52.83;100785.50;5088712;28;1027;-44
2023/01/11 12:12:47;;;;;;;;;;;;;;;17.40;49.94;100783.06;5096219;28;1214;-48
2023/01/11 12:15:26;;;;;;;;;;;;;;;16.40;52.49;100780.63;5099553;28;1166;-46
2023/01/11 12:17:51;;;;;;;;;;;;;;;16.07;53.29;100779.16;5098034;28;1065;-45
2023/01/11 12:20:23;;;;;;;;;;;;;;;15.90;53.60;100771.16;5098778;28;1129;-48
2023/01/11 12:22:48;;;;;;;;;;;;;;;17.25;50.30;100775.66;5088694;28;1988;-48
2023/01/11 12:25:20;;;;;;;;;;;;;;;16.55;51.93;100778.97;5092138;28;1125;-47
2023/01/11 12:27:48;;;;;;;;;;;;;;;16.10;53.17;100772.31;5079201;28;1038;-47
2023/01/11 12:30:34;;;;;;;;;;;;;;;15.89;53.39;100775.00;5096987;28;1130;-47
2023/01/11 12:33:18;;;;;;;;;;;;;;;16.86;51.31;100779.81;5070993;28;1250;-44
2023/01/11 12:35:44;;;;;;;;;;;;;;;16.73;51.66;100791.34;5089329;28;1157;-44
2023/01/11 12:38:29;;;;;;;;;;;;;;;16.15;52.85;100786.06;5092452;28;1106;-47
2023/01/11 12:41:13;;;;;;;;;;;;;;;15.92;53.40;100796.38;5091255;28;1930;-49
2023/01/11 12:43:51;;;;;;;;;;;;;;;17.13;50.73;100805.38;5078822;28;1066;-45
2023/01/11 12:46:20;;;;;;;;;;;;;;;16.65;51.60;100811.94;5081944;28;1054;-44
2023/01/11 12:48:49;;;;;;;;;;;;;;;16.16;53.23;100820.59;5088218;28;1054;-47
2023/01/11 12:51:33;;;;;;;;;;;;;;;15.92;53.42;100815.59;5078698;28;1007;-46
2023/01/11 12:54:17;;;;;;;;;;;;;;;15.74;54.09;100817.69;5078594;28;1444;-48
2023/01/11 12:56:55;;;;;;;;;;;;;;;17.39;50.10;100811.63;5098613;28;1081;-45
2023/01/11 12:59:40;;;;;;;;;;;;;;;16.57;51.89;100827.03;5096961;28;848;-47
2023/01/11 13:02:14;;;;;;;;;;;;;;;16.11;53.27;100834.31;5098059;28;1902;-45
2023/01/11 13:04:59;;;;;;;;;;;;;;;15.90;53.55;100834.25;5078410;28;1102;-47
2023/01/11 13:07:26;;;;;;;;;;;;;;;17.42;49.80;100836.66;5095898;28;1058;-45
2023/01/11 13:10:08;;;;;;;;;;;;;;;16.52;52.23;100837.16;5096649;28;1094;-43
2023/01/11 13:12:36;;;;;;;;;;;;;;;16.11;53.10;100842.56;5096510;28;1121;-48
2023/01/11 13:15:03;;;;;;;;;;;;;;;15.90;53.85;100835.06;5084961;28;1198;-45
2023/01/11 13:17:35;;;;;;;;;;;;;;;16.65;52.07;100835.81;5097590;28;992;-44
2023/01/11 13:20:06;;;;;;;;;;;;;;;16.98;51.08;100842.75;5077976;28;1493;-45
2023/01/11 13:22:33;;;;;;;;;;;;;;;16.25;52.91;100846.44;5090870;28;1969;-45
2023/01/11 13:25:00;;;;;;;;;;;;;;;16.00;53.70;100856.22;5101054;28;1166;-48